createdAt,value
2022-08-20T00:02:16.889Z,19.20
2022-08-20T00:04:45.799Z,19.20
2022-08-20T00:07:16.012Z,19.21
2022-08-20T00:09:45.275Z,19.21
2022-08-20T00:12:17.779Z,19.21
2022-08-20T00:14:45.839Z,19.23
2022-08-20T00:17:13.963Z,19.24
2022-08-20T00:19:42.036Z,19.26
2022-08-20T00:22:10.169Z,19.27
2022-08-20T00:24:38.525Z,19.29
2022-08-20T00:27:06.622Z,19.31
2022-08-20T00:29:35.717Z,19.31
2022-08-20T00:32:04.412Z,19.31
2022-08-20T00:34:32.794Z,19.32
2022-08-20T00:37:00.858Z,19.33
2022-08-20T00:39:31.534Z,19.33
2022-08-20T00:42:00.803Z,19.32
2022-08-20T00:44:29.929Z,19.30
2022-08-20T00:46:58.034Z,19.29
2022-08-20T00:49:29.446Z,19.28
2022-08-20T00:52:13.119Z,19.28
2022-08-20T00:54:53.933Z,19.26
2022-08-20T00:57:55.770Z,19.23
2022-08-20T01:00:31.255Z,19.18
2022-08-20T01:03:00.786Z,19.15
2022-08-20T01:05:30.147Z,19.14
2022-08-20T01:07:59.778Z,19.14
2022-08-20T01:10:32.454Z,19.14
2022-08-20T01:13:04.037Z,19.15
2022-08-20T01:15:32.101Z,19.14
2022-08-20T01:18:02.402Z,19.09
2022-08-20T01:20:34.345Z,19.05
2022-08-20T01:23:34.845Z,19.00
2022-08-20T01:26:13.642Z,18.92
2022-08-20T01:28:44.456Z,18.89
2022-08-20T01:31:16.774Z,18.87
2022-08-20T01:33:48.957Z,18.87
2022-08-20T01:36:23.198Z,18.87
2022-08-20T01:38:54.083Z,18.87
2022-08-20T01:41:28.366Z,18.87
2022-08-20T01:43:58.412Z,18.86
2022-08-20T01:46:31.617Z,18.81
2022-08-20T01:49:31.664Z,18.78
2022-08-20T01:52:07.683Z,18.75
2022-08-20T01:54:36.335Z,18.76
2022-08-20T01:57:06.335Z,18.75
2022-08-20T01:59:34.311Z,18.77
2022-08-20T02:02:03.224Z,18.77
2022-08-20T02:04:31.441Z,18.77
2022-08-20T02:07:02.282Z,18.72
2022-08-20T02:09:37.477Z,18.62
2022-08-20T02:12:09.905Z,18.47
2022-08-20T02:14:44.859Z,18.36
2022-08-20T02:17:15.102Z,18.29
2022-08-20T02:19:48.465Z,18.25
2022-08-20T02:22:24.619Z,18.24
2022-08-20T02:24:53.909Z,18.22
2022-08-20T02:27:23.841Z,18.20
2022-08-20T02:29:53.033Z,18.16
2022-08-20T02:32:25.009Z,18.13
2022-08-20T02:35:03.931Z,18.08
2022-08-20T02:37:32.112Z,18.05
2022-08-20T02:40:00.558Z,18.05
2022-08-20T02:42:28.732Z,18.05
2022-08-20T02:44:58.210Z,18.07
2022-08-20T02:47:27.946Z,18.09
2022-08-20T02:49:59.747Z,18.10
2022-08-20T02:52:27.831Z,18.12
2022-08-20T02:54:57.001Z,18.14
2022-08-20T02:57:25.191Z,18.16
2022-08-20T02:59:53.442Z,18.21
2022-08-20T03:02:21.718Z,18.26
2022-08-20T03:04:49.851Z,18.26
2022-08-20T03:07:18.161Z,18.22
2022-08-20T03:09:46.228Z,18.15
2022-08-20T03:12:14.610Z,18.04
2022-08-20T03:14:42.788Z,17.90
2022-08-20T03:17:11.861Z,17.83
2022-08-20T03:19:39.842Z,17.76
2022-08-20T03:22:07.849Z,17.70
2022-08-20T03:24:35.943Z,17.67
2022-08-20T03:27:04.572Z,17.64
2022-08-20T03:29:32.612Z,17.64
2022-08-20T03:32:03.854Z,17.60
2022-08-20T03:34:35.704Z,17.59
2022-08-20T03:37:03.670Z,17.55
2022-08-20T03:39:32.479Z,17.52
2022-08-20T03:42:00.702Z,17.52
2022-08-20T03:44:28.792Z,17.54
2022-08-20T03:46:57.105Z,17.59
2022-08-20T03:49:25.450Z,17.64
2022-08-20T03:51:57.144Z,17.70
2022-08-20T03:54:29.127Z,17.77
2022-08-20T03:57:12.480Z,17.83
2022-08-20T03:59:42.259Z,17.89
2022-08-20T04:02:12.023Z,17.94
2022-08-20T04:04:40.900Z,18.03
2022-08-20T04:07:11.356Z,18.08
2022-08-20T04:09:40.778Z,18.07
2022-08-20T04:12:12.970Z,18.07
2022-08-20T04:14:41.138Z,18.07
2022-08-20T04:17:12.556Z,18.05
2022-08-20T04:19:41.103Z,18.04
2022-08-20T04:22:09.106Z,18.02
2022-08-20T04:24:37.782Z,18.04
2022-08-20T04:27:06.128Z,18.04
2022-08-20T04:29:35.686Z,18.04
2022-08-20T04:32:06.345Z,18.03
2022-08-20T04:34:35.361Z,18.02
2022-08-20T04:37:05.666Z,18.05
2022-08-20T04:39:45.605Z,18.10
2022-08-20T04:42:13.659Z,18.18
2022-08-20T04:44:42.130Z,18.25
2022-08-20T04:47:10.125Z,18.32
2022-08-20T04:49:38.760Z,18.38
2022-08-20T04:52:06.836Z,18.37
2022-08-20T04:54:35.876Z,18.40
2022-08-20T04:57:04.111Z,18.44
2022-08-20T04:59:32.111Z,18.48
2022-08-20T05:02:00.379Z,18.57
2022-08-20T05:04:28.451Z,18.62
2022-08-20T05:06:56.422Z,18.69
2022-08-20T05:09:24.928Z,18.73
2022-08-20T05:11:53.686Z,18.80
2022-08-20T05:14:21.688Z,18.91
2022-08-20T05:16:50.910Z,19.01
2022-08-20T05:19:19.222Z,19.13
2022-08-20T05:21:47.294Z,19.24
2022-08-20T05:24:15.821Z,19.35
2022-08-20T05:26:44.501Z,19.48
2022-08-20T05:29:13.359Z,19.59
2022-08-20T05:31:43.928Z,19.72
2022-08-20T05:34:12.956Z,19.85
2022-08-20T05:36:48.105Z,19.94
2022-08-20T05:39:20.554Z,20.05
2022-08-20T05:41:51.428Z,20.14
2022-08-20T05:44:19.884Z,20.23
2022-08-20T05:46:48.593Z,20.33
2022-08-20T05:49:20.159Z,20.40
2022-08-20T05:51:51.016Z,20.43
2022-08-20T05:54:19.511Z,20.52
2022-08-20T05:56:47.656Z,20.66
2022-08-20T05:59:17.600Z,20.80
2022-08-20T06:01:48.526Z,20.91
2022-08-20T06:04:28.723Z,21.07
2022-08-20T06:07:04.065Z,21.21
2022-08-20T06:09:35.252Z,21.37
2022-08-20T06:12:07.208Z,21.53
2022-08-20T06:14:36.503Z,21.67
2022-08-20T06:17:15.371Z,21.82
2022-08-20T06:19:46.955Z,22.02
2022-08-20T06:22:19.631Z,22.15
2022-08-20T06:24:53.332Z,22.29
2022-08-20T06:27:22.786Z,22.44
2022-08-20T06:29:51.825Z,22.57
2022-08-20T06:32:32.095Z,22.67
2022-08-20T06:35:03.602Z,22.78
2022-08-20T06:37:37.286Z,22.90
2022-08-20T06:40:15.731Z,22.96
2022-08-20T06:42:48.519Z,23.13
2022-08-20T06:45:26.895Z,23.23
2022-08-20T06:47:59.135Z,23.39
2022-08-20T06:50:44.471Z,23.55
2022-08-20T06:53:21.325Z,23.71
2022-08-20T06:55:54.094Z,23.77
2022-08-20T06:58:30.509Z,23.91
2022-08-20T07:01:09.023Z,24.07
2022-08-20T07:03:54.412Z,24.22
2022-08-20T07:06:25.974Z,24.36
2022-08-20T07:08:57.922Z,24.51
2022-08-20T07:11:28.480Z,24.61
2022-08-20T07:13:58.601Z,24.70
2022-08-20T07:16:28.873Z,24.79
2022-08-20T07:18:56.920Z,24.90
2022-08-20T07:21:25.929Z,25.06
2022-08-20T07:23:54.081Z,25.16
2022-08-20T07:26:23.401Z,25.31
2022-08-20T07:28:53.440Z,25.37
2022-08-20T07:31:43.755Z,25.49
2022-08-20T07:34:18.003Z,25.57
2022-08-20T07:36:48.932Z,25.67
2022-08-20T07:39:17.733Z,25.84
2022-08-20T07:42:04.127Z,25.99
2022-08-20T07:44:32.549Z,26.13
2022-08-20T07:47:03.004Z,26.26
2022-08-20T07:49:33.807Z,26.43
2022-08-20T07:52:02.269Z,26.61
2022-08-20T07:54:31.112Z,26.77
2022-08-20T07:57:03.545Z,26.91
2022-08-20T07:59:32.248Z,27.10
2022-08-20T08:02:03.403Z,27.25
2022-08-20T08:04:31.533Z,27.43
2022-08-20T08:07:00.766Z,27.57
2022-08-20T08:09:29.154Z,27.65
2022-08-20T08:11:59.224Z,27.76
2022-08-20T08:14:31.722Z,27.79
2022-08-20T08:17:04.479Z,27.95
2022-08-20T08:19:38.883Z,28.11
2022-08-20T08:22:12.796Z,28.27
2022-08-20T08:24:57.524Z,28.34
2022-08-20T08:27:26.574Z,28.52
2022-08-20T08:29:54.674Z,28.66
2022-08-20T08:32:22.920Z,28.80
2022-08-20T08:34:52.962Z,28.90
2022-08-20T08:37:21.118Z,29.02
2022-08-20T08:39:49.777Z,29.19
2022-08-20T08:42:39.970Z,29.23
2022-08-20T08:45:16.093Z,29.12
2022-08-20T08:47:47.101Z,29.17
2022-08-20T08:50:53.844Z,29.35
2022-08-20T08:53:28.383Z,29.51
2022-08-20T08:55:57.669Z,29.52
2022-08-20T08:58:26.708Z,29.69
2022-08-20T09:00:57.415Z,29.72
2022-08-20T09:03:29.527Z,29.68
2022-08-20T09:06:01.696Z,29.71
2022-08-20T09:08:36.420Z,29.96
2022-08-20T09:11:08.656Z,30.12
2022-08-20T09:13:37.483Z,30.25
2022-08-20T09:16:07.070Z,30.42
2022-08-20T09:18:36.022Z,30.60
2022-08-20T09:21:04.765Z,30.72
2022-08-20T09:23:33.691Z,30.82
2022-08-20T09:26:02.068Z,30.86
2022-08-20T09:28:35.110Z,30.91
2022-08-20T09:31:05.698Z,30.93
2022-08-20T09:33:35.298Z,31.00
2022-08-20T09:36:29.284Z,31.23
2022-08-20T09:38:54.484Z,31.38
2022-08-20T09:41:24.000Z,31.51
2022-08-20T09:43:52.250Z,31.72
2022-08-20T09:46:20.623Z,31.84
2022-08-20T09:48:58.967Z,31.99
2022-08-20T09:51:28.753Z,32.28
2022-08-20T09:53:57.597Z,32.56
2022-08-20T09:56:27.011Z,32.82
2022-08-20T09:58:58.069Z,33.09
2022-08-20T10:01:31.277Z,33.27
2022-08-20T10:04:00.265Z,33.24
2022-08-20T10:06:28.565Z,33.23
2022-08-20T10:09:00.880Z,33.59
2022-08-20T10:11:28.932Z,33.57
2022-08-20T10:13:58.921Z,33.19
2022-08-20T10:16:27.238Z,33.32
2022-08-20T10:18:57.937Z,33.36
2022-08-20T10:21:26.320Z,33.36
2022-08-20T10:23:55.998Z,33.34
2022-08-20T10:26:24.574Z,33.57
2022-08-20T10:28:53.700Z,33.79
2022-08-20T10:31:22.261Z,33.97
2022-08-20T10:33:52.800Z,34.00
2022-08-20T10:36:20.866Z,34.18
2022-08-20T10:38:49.425Z,34.12
2022-08-20T10:41:17.876Z,34.17
2022-08-20T10:43:46.116Z,34.13
2022-08-20T10:46:15.487Z,34.56
2022-08-20T10:48:43.883Z,34.71
2022-08-20T10:51:12.336Z,34.83
2022-08-20T10:53:41.711Z,34.89
2022-08-20T10:56:12.760Z,35.28
2022-08-20T10:58:43.460Z,35.23
2022-08-20T11:01:31.395Z,35.35
2022-08-20T11:04:03.086Z,35.53
2022-08-20T11:06:31.459Z,35.68
2022-08-20T11:08:59.562Z,35.91
2022-08-20T11:11:27.867Z,35.78
2022-08-20T11:14:00.051Z,35.73
2022-08-20T11:16:28.274Z,36.23
2022-08-20T11:18:56.913Z,36.68
2022-08-20T11:21:26.241Z,36.97
2022-08-20T11:23:57.434Z,36.66
2022-08-20T11:26:29.307Z,36.43
2022-08-20T11:28:57.610Z,37.01
2022-08-20T11:31:26.520Z,37.31
2022-08-20T11:33:54.640Z,37.82
2022-08-20T11:36:26.626Z,37.53
2022-08-20T11:38:54.846Z,37.42
2022-08-20T11:41:24.163Z,37.36
2022-08-20T11:44:17.482Z,38.01
2022-08-20T11:46:42.054Z,38.61
2022-08-20T11:49:10.444Z,38.74
2022-08-20T11:51:49.161Z,39.02
2022-08-20T11:54:18.967Z,38.77
2022-08-20T11:56:47.656Z,38.08
2022-08-20T11:59:16.893Z,38.62
2022-08-20T12:02:01.967Z,38.63
2022-08-20T12:04:33.630Z,38.66
2022-08-20T12:07:12.064Z,38.73
2022-08-20T12:09:50.262Z,38.49
2022-08-20T12:12:24.148Z,38.50
2022-08-20T12:14:56.663Z,38.78
2022-08-20T12:17:28.144Z,39.12
2022-08-20T12:19:58.465Z,39.34
2022-08-20T12:22:26.794Z,39.11
2022-08-20T12:24:55.043Z,39.23
2022-08-20T12:27:29.393Z,39.32
2022-08-20T12:29:59.658Z,39.01
2022-08-20T12:32:29.815Z,38.19
2022-08-20T12:35:00.502Z,37.56
2022-08-20T12:37:30.962Z,37.28
2022-08-20T12:40:01.720Z,36.73
2022-08-20T12:42:30.745Z,36.56
2022-08-20T12:45:00.379Z,36.15
2022-08-20T12:47:34.116Z,35.69
2022-08-20T12:50:07.306Z,35.42
2022-08-20T12:52:38.809Z,35.13
2022-08-20T12:55:08.874Z,34.73
2022-08-20T12:57:41.930Z,34.57
2022-08-20T13:00:23.678Z,34.35
2022-08-20T13:02:54.509Z,34.25
2022-08-20T13:05:23.621Z,34.09
2022-08-20T13:07:52.978Z,33.88
2022-08-20T13:10:25.805Z,33.74
2022-08-20T13:12:54.548Z,33.55
2022-08-20T13:15:25.248Z,33.31
2022-08-20T13:17:55.126Z,33.09
2022-08-20T13:20:31.025Z,32.92
2022-08-20T13:23:05.134Z,32.72
2022-08-20T13:25:33.781Z,32.60
2022-08-20T13:28:05.748Z,32.47
2022-08-20T13:30:38.772Z,32.23
2022-08-20T13:33:07.610Z,32.10
2022-08-20T13:35:36.017Z,32.00
2022-08-20T13:38:04.332Z,31.92
2022-08-20T13:40:33.142Z,31.85
2022-08-20T13:43:06.765Z,31.72
2022-08-20T13:45:40.577Z,31.13
2022-08-20T13:48:14.923Z,30.55
2022-08-20T13:50:47.242Z,30.15
2022-08-20T13:53:17.429Z,29.77
2022-08-20T13:55:47.533Z,29.55
2022-08-20T13:58:15.762Z,29.36
2022-08-20T14:00:46.519Z,29.05
2022-08-20T14:03:19.829Z,28.63
2022-08-20T14:05:48.685Z,28.30
2022-08-20T14:08:18.810Z,28.08
2022-08-20T14:10:51.330Z,27.81
2022-08-20T14:13:23.257Z,27.67
2022-08-20T14:15:51.974Z,27.43
2022-08-20T14:18:20.931Z,27.27
2022-08-20T14:20:49.390Z,27.16
2022-08-20T14:23:17.581Z,26.91
2022-08-20T14:25:48.295Z,26.73
2022-08-20T14:28:20.405Z,26.63
2022-08-20T14:30:53.025Z,26.52
2022-08-20T14:33:24.206Z,26.36
2022-08-20T14:35:53.119Z,26.27
2022-08-20T14:38:23.104Z,26.18
2022-08-20T14:40:51.265Z,26.14
2022-08-20T14:43:20.130Z,26.01
2022-08-20T14:45:48.290Z,25.91
2022-08-20T14:48:17.411Z,25.81
2022-08-20T14:50:45.737Z,25.76
2022-08-20T14:53:14.485Z,25.67
2022-08-20T14:55:43.087Z,25.59
2022-08-20T14:58:12.887Z,25.52
2022-08-20T15:00:42.784Z,25.49
2022-08-20T15:03:10.960Z,25.48
2022-08-20T15:05:40.899Z,25.44
2022-08-20T15:08:10.580Z,25.40
2022-08-20T15:10:39.632Z,25.35
2022-08-20T15:13:08.942Z,25.30
2022-08-20T15:15:37.807Z,25.29
2022-08-20T15:18:06.616Z,25.28
2022-08-20T15:20:36.546Z,25.25
2022-08-20T15:23:06.306Z,25.25
2022-08-20T15:25:37.920Z,25.21
2022-08-20T15:28:09.860Z,25.16
2022-08-20T15:30:41.006Z,25.15
2022-08-20T15:33:10.840Z,25.11
2022-08-20T15:35:39.999Z,25.05
2022-08-20T15:38:08.177Z,24.99
2022-08-20T15:40:37.169Z,24.90
2022-08-20T15:43:06.453Z,24.85
2022-08-20T15:45:36.310Z,24.78
2022-08-20T15:48:10.147Z,24.76
2022-08-20T15:51:05.354Z,24.74
2022-08-20T15:53:51.878Z,24.72
2022-08-20T15:56:50.636Z,24.65
2022-08-20T15:59:21.363Z,24.59
2022-08-20T16:02:26.744Z,24.52
2022-08-20T16:04:54.919Z,24.41
2022-08-20T16:07:35.753Z,24.39
2022-08-20T16:10:15.129Z,24.34
2022-08-20T16:12:49.162Z,24.30
2022-08-20T16:15:23.991Z,24.25
2022-08-20T16:18:02.710Z,24.22
2022-08-20T16:20:44.203Z,24.20
2022-08-20T16:23:19.819Z,24.17
2022-08-20T16:25:47.707Z,24.18
2022-08-20T16:28:28.834Z,24.17
2022-08-20T16:31:13.901Z,24.14
2022-08-20T16:34:33.996Z,24.10
2022-08-20T16:37:31.554Z,24.09
2022-08-20T16:40:14.938Z,24.10
2022-08-20T16:42:46.280Z,24.07
2022-08-20T16:45:27.818Z,24.03
2022-08-20T16:48:01.367Z,24.01
2022-08-20T16:50:37.569Z,23.99
2022-08-20T16:53:20.820Z,23.98
2022-08-20T16:55:50.046Z,23.99
2022-08-20T16:58:18.325Z,24.00
2022-08-20T17:00:50.053Z,24.01
2022-08-20T17:03:31.629Z,24.03
2022-08-20T17:06:33.566Z,24.04
2022-08-20T17:09:09.920Z,24.04
2022-08-20T17:11:38.962Z,24.01
2022-08-20T17:14:16.940Z,23.99
2022-08-20T17:16:51.511Z,23.96
2022-08-20T17:19:33.683Z,23.94
2022-08-20T17:22:10.818Z,23.91
2022-08-20T17:24:41.457Z,23.91
2022-08-20T17:27:17.121Z,23.87
2022-08-20T17:29:51.244Z,23.81
2022-08-20T17:32:26.435Z,23.78
2022-08-20T17:34:57.941Z,23.71
2022-08-20T17:37:33.753Z,23.63
2022-08-20T17:40:18.823Z,23.58
2022-08-20T17:42:57.072Z,23.52
2022-08-20T17:45:45.946Z,23.49
2022-08-20T17:48:34.394Z,23.42
2022-08-20T17:51:19.508Z,23.38
2022-08-20T17:53:52.047Z,23.32
2022-08-20T17:56:26.886Z,23.27
2022-08-20T17:59:03.484Z,23.23
2022-08-20T18:01:35.075Z,23.17
2022-08-20T18:04:06.777Z,23.13
2022-08-20T18:06:50.034Z,23.08
2022-08-20T18:09:44.629Z,22.99
2022-08-20T18:12:38.218Z,22.93
2022-08-20T18:15:24.324Z,22.89
2022-08-20T18:18:10.831Z,22.86
2022-08-20T18:21:03.918Z,22.83
2022-08-20T18:23:42.119Z,22.80
2022-08-20T18:26:44.580Z,22.77
2022-08-20T18:29:22.235Z,22.71
2022-08-20T18:31:59.971Z,22.66
2022-08-20T18:34:34.293Z,22.63
2022-08-20T18:37:06.983Z,22.60
2022-08-20T18:39:41.900Z,22.57
2022-08-20T18:42:22.366Z,22.54
2022-08-20T18:44:53.828Z,22.51
2022-08-20T18:47:28.795Z,22.47
2022-08-20T18:50:16.394Z,22.42
2022-08-20T18:52:50.837Z,22.36
2022-08-20T18:55:33.828Z,22.32
2022-08-20T18:58:29.990Z,22.25
2022-08-20T19:01:01.369Z,22.19
2022-08-20T19:03:39.349Z,22.12
2022-08-20T19:06:10.015Z,22.04
2022-08-20T19:08:56.841Z,21.96
2022-08-20T19:11:42.777Z,21.86
2022-08-20T19:14:25.958Z,21.78
2022-08-20T19:17:09.868Z,21.71
2022-08-20T19:19:39.206Z,21.62
2022-08-20T19:22:10.646Z,21.57
2022-08-20T19:24:44.315Z,21.51
2022-08-20T19:27:21.613Z,21.46
2022-08-20T19:29:56.826Z,21.41
2022-08-20T19:32:31.614Z,21.37
2022-08-20T19:35:05.499Z,21.30
2022-08-20T19:37:51.471Z,21.21
2022-08-20T19:40:28.482Z,21.14
2022-08-20T19:43:00.024Z,21.08
2022-08-20T19:45:44.014Z,21.05
2022-08-20T19:48:27.009Z,21.00
2022-08-20T19:51:15.279Z,20.96
2022-08-20T19:53:47.850Z,20.95
2022-08-20T19:56:46.013Z,20.91
2022-08-20T19:59:21.290Z,20.87
2022-08-20T20:02:00.790Z,20.83
2022-08-20T20:04:41.054Z,20.78
2022-08-20T20:07:29.230Z,20.72
2022-08-20T20:09:59.246Z,20.69
2022-08-20T20:12:28.225Z,20.65
2022-08-20T20:14:56.898Z,20.60
2022-08-20T20:17:31.692Z,20.58
2022-08-20T20:20:04.240Z,20.56
2022-08-20T20:22:35.699Z,20.54
2022-08-20T20:25:18.304Z,20.52
2022-08-20T20:27:55.522Z,20.48
2022-08-20T20:30:33.804Z,20.45
2022-08-20T20:33:35.948Z,20.41
2022-08-20T20:36:08.979Z,20.34
2022-08-20T20:38:40.028Z,20.32
2022-08-20T20:41:20.564Z,20.32
2022-08-20T20:44:17.112Z,20.32
2022-08-20T20:46:48.593Z,20.31
2022-08-20T20:49:24.692Z,20.27
2022-08-20T20:52:21.722Z,20.24
2022-08-20T20:54:51.243Z,20.22
2022-08-20T20:57:36.454Z,20.19
2022-08-20T21:00:17.521Z,20.12
2022-08-20T21:02:46.812Z,20.07
2022-08-20T21:05:17.540Z,20.03
2022-08-20T21:08:00.317Z,20.01
2022-08-20T21:10:32.319Z,19.99
2022-08-20T21:13:03.583Z,19.98
2022-08-20T21:15:33.982Z,19.94
2022-08-20T21:18:08.086Z,19.89
2022-08-20T21:20:37.398Z,19.81
2022-08-20T21:23:09.908Z,19.75
2022-08-20T21:25:40.934Z,19.72
2022-08-20T21:28:09.689Z,19.65
2022-08-20T21:30:37.879Z,19.63
2022-08-20T21:33:05.929Z,19.61
2022-08-20T21:35:34.702Z,19.59
2022-08-20T21:38:02.767Z,19.59
2022-08-20T21:40:32.036Z,19.60
2022-08-20T21:43:00.224Z,19.60
2022-08-20T21:45:28.804Z,19.59
2022-08-20T21:47:58.639Z,19.59
2022-08-20T21:50:28.941Z,19.60
2022-08-20T21:53:00.138Z,19.58
2022-08-20T21:55:33.915Z,19.57
2022-08-20T21:58:05.596Z,19.55
2022-08-20T22:00:48.403Z,19.50
2022-08-20T22:03:20.111Z,19.47
2022-08-20T22:05:50.049Z,19.43
2022-08-20T22:08:19.870Z,19.40
2022-08-20T22:10:48.948Z,19.32
2022-08-20T22:13:17.363Z,19.29
2022-08-20T22:15:45.547Z,19.25
2022-08-20T22:18:14.150Z,19.19
2022-08-20T22:20:44.183Z,19.15
2022-08-20T22:23:12.605Z,19.14
2022-08-20T22:25:41.079Z,19.16
2022-08-20T22:28:09.707Z,19.20
2022-08-20T22:30:42.114Z,19.21
2022-08-20T22:33:16.900Z,19.18
2022-08-20T22:35:49.171Z,19.17
2022-08-20T22:38:19.653Z,19.18
2022-08-20T22:40:48.667Z,19.18
2022-08-20T22:43:17.348Z,19.20
2022-08-20T22:45:48.459Z,19.21
2022-08-20T22:48:19.416Z,19.21
2022-08-20T22:50:48.955Z,19.23
2022-08-20T22:53:19.682Z,19.23
2022-08-20T22:55:48.615Z,19.23
2022-08-20T22:58:17.091Z,19.22
2022-08-20T23:00:47.655Z,19.20
2022-08-20T23:03:22.668Z,19.18
2022-08-20T23:06:07.646Z,19.16
2022-08-20T23:08:36.861Z,19.16
2022-08-20T23:11:05.213Z,19.14
2022-08-20T23:13:33.812Z,19.14
2022-08-20T23:16:01.978Z,19.14
2022-08-20T23:18:30.107Z,19.12
2022-08-20T23:20:59.236Z,19.10
2022-08-20T23:23:27.981Z,19.10
2022-08-20T23:25:56.675Z,19.11
2022-08-20T23:28:25.353Z,19.12
2022-08-20T23:30:53.467Z,19.11
2022-08-20T23:33:21.963Z,19.11
2022-08-20T23:35:50.738Z,19.09
2022-08-20T23:38:20.505Z,19.08
2022-08-20T23:40:48.512Z,19.07
2022-08-20T23:43:16.689Z,19.08
2022-08-20T23:45:44.902Z,19.08
2022-08-20T23:48:12.929Z,19.09
2022-08-20T23:50:40.909Z,19.11
2022-08-20T23:53:09.278Z,19.11
2022-08-20T23:55:39.755Z,19.12
2022-08-20T23:58:08.797Z,19.07
